sensor_id;sensor_type;location;lat;lon;timestamp;temperature;humidity
33476;DHT22;19814;48.224;11.422;2024-03-07T00:02:07;5.30;99.90
33476;DHT22;19814;48.224;11.422;2024-03-07T00:04:32;5.30;99.90
33476;DHT22;19814;48.224;11.422;2024-03-07T00:06:58;5.40;99.90
33476;DHT22;19814;48.224;11.422;2024-03-07T00:09:23;5.40;99.90
33476;DHT22;19814;48.224;11.422;2024-03-07T00:11:51;5.40;99.90
33476;DHT22;19814;48.224;11.422;2024-03-07T00:14:16;5.30;99.90
33476;DHT22;19814;48.224;11.422;2024-03-07T00:16:41;5.30;99.90
33476;DHT22;19814;48.224;11.422;2024-03-07T00:19:07;5.20;99.90
33476;DHT22;19814;48.224;11.422;2024-03-07T00:21:32;5.20;99.90
33476;DHT22;19814;48.224;11.422;2024-03-07T00:23:58;5.30;99.90
33476;DHT22;19814;48.224;11.422;2024-03-07T00:26:24;5.20;99.90
33476;DHT22;19814;48.224;11.422;2024-03-07T00:28:50;5.20;99.90
33476;DHT22;19814;48.224;11.422;2024-03-07T00:31:16;5.20;99.90
33476;DHT22;19814;48.224;11.422;2024-03-07T00:33:42;5.20;99.90
33476;DHT22;19814;48.224;11.422;2024-03-07T00:36:08;5.20;99.90
33476;DHT22;19814;48.224;11.422;2024-03-07T00:38:33;5.20;99.90
33476;DHT22;19814;48.224;11.422;2024-03-07T00:40:59;5.20;99.90
33476;DHT22;19814;48.224;11.422;2024-03-07T00:43:25;5.20;99.90
33476;DHT22;19814;48.224;11.422;2024-03-07T00:45:50;5.20;99.90
33476;DHT22;19814;48.224;11.422;2024-03-07T00:48:16;5.20;99.90
33476;DHT22;19814;48.224;11.422;2024-03-07T00:50:42;5.20;99.90
33476;DHT22;19814;48.224;11.422;2024-03-07T00:53:08;5.20;99.90
33476;DHT22;19814;48.224;11.422;2024-03-07T00:55:33;5.20;99.90
33476;DHT22;19814;48.224;11.422;2024-03-07T00:57:59;5.20;99.90
33476;DHT22;19814;48.224;11.422;2024-03-07T01:00:24;5.20;99.90
33476;DHT22;19814;48.224;11.422;2024-03-07T01:02:50;5.20;99.90
33476;DHT22;19814;48.224;11.422;2024-03-07T01:05:18;5.10;99.90
33476;DHT22;19814;48.224;11.422;2024-03-07T01:07:44;5.20;99.90
33476;DHT22;19814;48.224;11.422;2024-03-07T01:10:12;5.20;99.90
33476;DHT22;19814;48.224;11.422;2024-03-07T01:12:37;5.10;99.90
33476;DHT22;19814;48.224;11.422;2024-03-07T01:15:03;5.10;99.90
33476;DHT22;19814;48.224;11.422;2024-03-07T01:17:32;5.10;99.90
33476;DHT22;19814;48.224;11.422;2024-03-07T01:19:57;5.10;99.90
33476;DHT22;19814;48.224;11.422;2024-03-07T01:22:23;5.10;99.90
33476;DHT22;19814;48.224;11.422;2024-03-07T01:24:49;5.10;99.90
33476;DHT22;19814;48.224;11.422;2024-03-07T01:27:16;5.00;99.90
33476;DHT22;19814;48.224;11.422;2024-03-07T01:29:41;4.90;99.90
33476;DHT22;19814;48.224;11.422;2024-03-07T01:32:08;4.90;99.90
33476;DHT22;19814;48.224;11.422;2024-03-07T01:34:33;4.90;99.90
33476;DHT22;19814;48.224;11.422;2024-03-07T01:36:59;4.90;99.90
33476;DHT22;19814;48.224;11.422;2024-03-07T01:39:24;4.80;99.90
33476;DHT22;19814;48.224;11.422;2024-03-07T01:41:50;4.80;99.90
33476;DHT22;19814;48.224;11.422;2024-03-07T01:44:15;4.80;99.90
33476;DHT22;19814;48.224;11.422;2024-03-07T01:46:41;4.90;99.90
33476;DHT22;19814;48.224;11.422;2024-03-07T01:49:07;4.90;99.90
33476;DHT22;19814;48.224;11.422;2024-03-07T01:51:33;4.80;99.90
33476;DHT22;19814;48.224;11.422;2024-03-07T01:53:59;4.80;99.90
33476;DHT22;19814;48.224;11.422;2024-03-07T01:56:25;4.80;99.90
33476;DHT22;19814;48.224;11.422;2024-03-07T01:58:50;4.80;99.90
33476;DHT22;19814;48.224;11.422;2024-03-07T02:01:16;4.80;99.90
33476;DHT22;19814;48.224;11.422;2024-03-07T02:03:42;4.80;99.90
33476;DHT22;19814;48.224;11.422;2024-03-07T02:06:08;4.80;99.90
33476;DHT22;19814;48.224;11.422;2024-03-07T02:08:33;4.80;99.90
33476;DHT22;19814;48.224;11.422;2024-03-07T02:11:01;4.70;99.90
33476;DHT22;19814;48.224;11.422;2024-03-07T02:13:26;4.70;99.90
33476;DHT22;19814;48.224;11.422;2024-03-07T02:15:54;4.70;99.90
33476;DHT22;19814;48.224;11.422;2024-03-07T02:18:20;4.60;99.90
33476;DHT22;19814;48.224;11.422;2024-03-07T02:20:45;4.40;99.90
33476;DHT22;19814;48.224;11.422;2024-03-07T02:23:12;4.40;99.90
33476;DHT22;19814;48.224;11.422;2024-03-07T02:25:37;4.20;99.90
33476;DHT22;19814;48.224;11.422;2024-03-07T02:28:04;4.20;99.90
33476;DHT22;19814;48.224;11.422;2024-03-07T02:30:30;4.10;99.90
33476;DHT22;19814;48.224;11.422;2024-03-07T02:32:57;4.00;99.90
33476;DHT22;19814;48.224;11.422;2024-03-07T02:35:24;4.00;99.90
33476;DHT22;19814;48.224;11.422;2024-03-07T02:37:50;3.90;99.90
33476;DHT22;19814;48.224;11.422;2024-03-07T02:40:16;3.80;99.90
33476;DHT22;19814;48.224;11.422;2024-03-07T02:42:42;3.80;99.90
33476;DHT22;19814;48.224;11.422;2024-03-07T02:45:08;3.70;99.90
33476;DHT22;19814;48.224;11.422;2024-03-07T02:47:33;3.80;99.90
33476;DHT22;19814;48.224;11.422;2024-03-07T02:49:59;3.80;99.90
33476;DHT22;19814;48.224;11.422;2024-03-07T02:52:25;3.80;99.90
33476;DHT22;19814;48.224;11.422;2024-03-07T02:54:51;3.80;99.90
33476;DHT22;19814;48.224;11.422;2024-03-07T02:57:17;3.80;99.90
33476;DHT22;19814;48.224;11.422;2024-03-07T02:59:42;3.90;99.90
33476;DHT22;19814;48.224;11.422;2024-03-07T03:02:08;3.80;99.90
33476;DHT22;19814;48.224;11.422;2024-03-07T03:04:33;3.80;99.90
33476;DHT22;19814;48.224;11.422;2024-03-07T03:06:59;3.70;99.90
33476;DHT22;19814;48.224;11.422;2024-03-07T03:09:25;3.70;99.90
33476;DHT22;19814;48.224;11.422;2024-03-07T03:11:52;3.60;99.90
33476;DHT22;19814;48.224;11.422;2024-03-07T03:14:18;3.60;99.90
33476;DHT22;19814;48.224;11.422;2024-03-07T03:16:43;3.70;99.90
33476;DHT22;19814;48.224;11.422;2024-03-07T03:19:09;3.70;99.90
33476;DHT22;19814;48.224;11.422;2024-03-07T03:21:35;3.80;99.90
33476;DHT22;19814;48.224;11.422;2024-03-07T03:24:00;3.80;99.90
33476;DHT22;19814;48.224;11.422;2024-03-07T03:26:28;3.80;99.90
33476;DHT22;19814;48.224;11.422;2024-03-07T03:28:53;3.70;99.90
33476;DHT22;19814;48.224;11.422;2024-03-07T03:31:19;3.60;99.90
33476;DHT22;19814;48.224;11.422;2024-03-07T03:33:45;3.60;99.90
33476;DHT22;19814;48.224;11.422;2024-03-07T03:36:11;3.50;99.90
33476;DHT22;19814;48.224;11.422;2024-03-07T03:38:36;3.60;99.90
33476;DHT22;19814;48.224;11.422;2024-03-07T03:41:01;3.70;99.90
33476;DHT22;19814;48.224;11.422;2024-03-07T03:43:27;3.60;99.90
33476;DHT22;19814;48.224;11.422;2024-03-07T03:45:52;3.70;99.90
33476;DHT22;19814;48.224;11.422;2024-03-07T03:48:18;3.60;99.90
33476;DHT22;19814;48.224;11.422;2024-03-07T03:50:43;3.70;99.90
33476;DHT22;19814;48.224;11.422;2024-03-07T03:53:09;3.70;99.90
33476;DHT22;19814;48.224;11.422;2024-03-07T03:55:34;3.80;99.90
33476;DHT22;19814;48.224;11.422;2024-03-07T03:58:00;3.80;99.90
33476;DHT22;19814;48.224;11.422;2024-03-07T04:00:26;3.80;99.90
33476;DHT22;19814;48.224;11.422;2024-03-07T04:02:51;3.80;99.90
33476;DHT22;19814;48.224;11.422;2024-03-07T04:05:18;3.80;99.90
33476;DHT22;19814;48.224;11.422;2024-03-07T04:07:44;3.70;99.90
33476;DHT22;19814;48.224;11.422;2024-03-07T04:10:10;3.80;99.90
33476;DHT22;19814;48.224;11.422;2024-03-07T04:12:36;3.90;99.90
33476;DHT22;19814;48.224;11.422;2024-03-07T04:15:09;3.90;99.90
33476;DHT22;19814;48.224;11.422;2024-03-07T04:17:35;3.80;99.90
33476;DHT22;19814;48.224;11.422;2024-03-07T04:20:00;3.70;99.90
33476;DHT22;19814;48.224;11.422;2024-03-07T04:22:26;3.70;99.90
33476;DHT22;19814;48.224;11.422;2024-03-07T04:24:53;3.70;99.90
33476;DHT22;19814;48.224;11.422;2024-03-07T04:27:21;3.70;99.90
33476;DHT22;19814;48.224;11.422;2024-03-07T04:29:47;3.70;99.90
33476;DHT22;19814;48.224;11.422;2024-03-07T04:32:13;3.80;99.90
33476;DHT22;19814;48.224;11.422;2024-03-07T04:34:39;3.80;99.90
33476;DHT22;19814;48.224;11.422;2024-03-07T04:37:04;3.80;99.90
33476;DHT22;19814;48.224;11.422;2024-03-07T04:39:30;3.90;99.90
33476;DHT22;19814;48.224;11.422;2024-03-07T04:41:59;3.90;99.90
33476;DHT22;19814;48.224;11.422;2024-03-07T04:44:26;3.90;99.90
33476;DHT22;19814;48.224;11.422;2024-03-07T04:46:51;3.90;99.90
33476;DHT22;19814;48.224;11.422;2024-03-07T04:49:21;3.90;99.90
33476;DHT22;19814;48.224;11.422;2024-03-07T04:51:47;3.80;99.90
33476;DHT22;19814;48.224;11.422;2024-03-07T04:54:12;3.90;99.90
33476;DHT22;19814;48.224;11.422;2024-03-07T04:56:37;3.90;99.90
33476;DHT22;19814;48.224;11.422;2024-03-07T04:59:03;4.00;99.90
33476;DHT22;19814;48.224;11.422;2024-03-07T05:01:28;3.90;99.90
33476;DHT22;19814;48.224;11.422;2024-03-07T05:03:56;3.90;99.90
33476;DHT22;19814;48.224;11.422;2024-03-07T05:06:21;3.90;99.90
33476;DHT22;19814;48.224;11.422;2024-03-07T05:08:47;3.80;99.90
33476;DHT22;19814;48.224;11.422;2024-03-07T05:11:12;3.80;99.90
33476;DHT22;19814;48.224;11.422;2024-03-07T05:13:38;3.80;99.90
33476;DHT22;19814;48.224;11.422;2024-03-07T05:16:03;3.80;99.90
33476;DHT22;19814;48.224;11.422;2024-03-07T05:18:29;3.70;99.90
33476;DHT22;19814;48.224;11.422;2024-03-07T05:20:55;3.60;99.90
33476;DHT22;19814;48.224;11.422;2024-03-07T05:23:20;3.60;99.90
33476;DHT22;19814;48.224;11.422;2024-03-07T05:25:46;3.50;99.90
33476;DHT22;19814;48.224;11.422;2024-03-07T05:28:11;3.40;99.90
33476;DHT22;19814;48.224;11.422;2024-03-07T05:30:37;3.40;99.90
33476;DHT22;19814;48.224;11.422;2024-03-07T05:33:02;3.40;99.90
33476;DHT22;19814;48.224;11.422;2024-03-07T05:35:28;3.40;99.90
33476;DHT22;19814;48.224;11.422;2024-03-07T05:37:56;3.40;99.90
33476;DHT22;19814;48.224;11.422;2024-03-07T05:40:23;3.40;99.90
33476;DHT22;19814;48.224;11.422;2024-03-07T05:42:48;3.40;99.90
33476;DHT22;19814;48.224;11.422;2024-03-07T05:45:14;3.40;99.90
33476;DHT22;19814;48.224;11.422;2024-03-07T05:47:40;3.40;99.90
33476;DHT22;19814;48.224;11.422;2024-03-07T05:50:06;3.30;99.90
33476;DHT22;19814;48.224;11.422;2024-03-07T05:52:32;3.20;99.90
33476;DHT22;19814;48.224;11.422;2024-03-07T05:54:58;3.20;99.90
33476;DHT22;19814;48.224;11.422;2024-03-07T05:57:23;3.20;99.90
33476;DHT22;19814;48.224;11.422;2024-03-07T05:59:49;3.10;99.90
33476;DHT22;19814;48.224;11.422;2024-03-07T06:02:14;3.10;99.90
33476;DHT22;19814;48.224;11.422;2024-03-07T06:04:41;3.00;99.90
33476;DHT22;19814;48.224;11.422;2024-03-07T06:07:08;3.00;99.90
33476;DHT22;19814;48.224;11.422;2024-03-07T06:09:36;3.00;99.90
33476;DHT22;19814;48.224;11.422;2024-03-07T06:12:01;3.10;99.90
33476;DHT22;19814;48.224;11.422;2024-03-07T06:14:29;3.10;99.90
33476;DHT22;19814;48.224;11.422;2024-03-07T06:16:55;3.20;99.90
33476;DHT22;19814;48.224;11.422;2024-03-07T06:19:23;3.20;99.90
33476;DHT22;19814;48.224;11.422;2024-03-07T06:21:48;3.30;99.90
33476;DHT22;19814;48.224;11.422;2024-03-07T06:24:14;3.40;99.90
33476;DHT22;19814;48.224;11.422;2024-03-07T06:26:40;3.50;99.90
33476;DHT22;19814;48.224;11.422;2024-03-07T06:29:08;3.60;99.90
33476;DHT22;19814;48.224;11.422;2024-03-07T06:31:36;3.60;99.90
33476;DHT22;19814;48.224;11.422;2024-03-07T06:34:02;3.70;99.90
33476;DHT22;19814;48.224;11.422;2024-03-07T06:36:28;3.60;99.90
33476;DHT22;19814;48.224;11.422;2024-03-07T06:38:53;3.60;99.90
33476;DHT22;19814;48.224;11.422;2024-03-07T06:41:19;3.70;99.90
33476;DHT22;19814;48.224;11.422;2024-03-07T06:43:45;3.70;99.90
33476;DHT22;19814;48.224;11.422;2024-03-07T06:46:10;3.70;99.90
33476;DHT22;19814;48.224;11.422;2024-03-07T06:48:38;3.80;99.90
33476;DHT22;19814;48.224;11.422;2024-03-07T06:51:05;3.80;99.90
33476;DHT22;19814;48.224;11.422;2024-03-07T06:53:31;3.80;99.90
33476;DHT22;19814;48.224;11.422;2024-03-07T06:55:56;3.80;99.90
33476;DHT22;19814;48.224;11.422;2024-03-07T06:58:22;3.90;99.90
33476;DHT22;19814;48.224;11.422;2024-03-07T07:00:50;4.00;99.90
33476;DHT22;19814;48.224;11.422;2024-03-07T07:03:20;4.10;99.90
33476;DHT22;19814;48.224;11.422;2024-03-07T07:05:45;4.30;99.90
33476;DHT22;19814;48.224;11.422;2024-03-07T07:08:11;4.40;99.90
33476;DHT22;19814;48.224;11.422;2024-03-07T07:10:39;4.40;99.90
33476;DHT22;19814;48.224;11.422;2024-03-07T07:13:06;4.50;99.90
33476;DHT22;19814;48.224;11.422;2024-03-07T07:15:32;4.50;99.90
33476;DHT22;19814;48.224;11.422;2024-03-07T07:17:58;4.50;99.90
33476;DHT22;19814;48.224;11.422;2024-03-07T07:20:24;4.50;99.90
33476;DHT22;19814;48.224;11.422;2024-03-07T07:22:49;4.50;99.90
33476;DHT22;19814;48.224;11.422;2024-03-07T07:25:15;4.40;99.90
33476;DHT22;19814;48.224;11.422;2024-03-07T07:27:45;4.50;99.90
33476;DHT22;19814;48.224;11.422;2024-03-07T07:30:11;4.50;99.90
33476;DHT22;19814;48.224;11.422;2024-03-07T07:32:37;4.60;99.90
33476;DHT22;19814;48.224;11.422;2024-03-07T07:35:03;4.60;99.90
33476;DHT22;19814;48.224;11.422;2024-03-07T07:37:29;4.60;99.90
33476;DHT22;19814;48.224;11.422;2024-03-07T07:39:54;4.70;99.90
33476;DHT22;19814;48.224;11.422;2024-03-07T07:42:19;4.70;99.90
33476;DHT22;19814;48.224;11.422;2024-03-07T07:44:45;4.90;99.90
33476;DHT22;19814;48.224;11.422;2024-03-07T07:47:11;4.80;99.90
33476;DHT22;19814;48.224;11.422;2024-03-07T07:49:37;4.90;99.90
33476;DHT22;19814;48.224;11.422;2024-03-07T07:52:04;5.00;99.90
33476;DHT22;19814;48.224;11.422;2024-03-07T07:54:29;5.00;99.90
33476;DHT22;19814;48.224;11.422;2024-03-07T07:56:55;5.00;99.90
33476;DHT22;19814;48.224;11.422;2024-03-07T07:59:20;5.10;99.90
33476;DHT22;19814;48.224;11.422;2024-03-07T08:01:46;4.90;99.90
33476;DHT22;19814;48.224;11.422;2024-03-07T08:04:11;4.80;99.90
33476;DHT22;19814;48.224;11.422;2024-03-07T08:06:37;4.80;99.90
33476;DHT22;19814;48.224;11.422;2024-03-07T08:09:02;5.00;99.90
33476;DHT22;19814;48.224;11.422;2024-03-07T08:11:28;5.00;99.90
33476;DHT22;19814;48.224;11.422;2024-03-07T08:13:53;4.80;99.90
33476;DHT22;19814;48.224;11.422;2024-03-07T08:16:19;4.70;99.90
33476;DHT22;19814;48.224;11.422;2024-03-07T08:18:45;4.60;99.90
33476;DHT22;19814;48.224;11.422;2024-03-07T08:21:11;4.60;99.90
33476;DHT22;19814;48.224;11.422;2024-03-07T08:23:36;4.60;99.90
33476;DHT22;19814;48.224;11.422;2024-03-07T08:26:02;4.70;99.90
33476;DHT22;19814;48.224;11.422;2024-03-07T08:28:27;4.60;99.90
33476;DHT22;19814;48.224;11.422;2024-03-07T08:30:53;4.60;99.90
33476;DHT22;19814;48.224;11.422;2024-03-07T08:33:20;4.70;99.90
33476;DHT22;19814;48.224;11.422;2024-03-07T08:35:47;4.70;99.90
33476;DHT22;19814;48.224;11.422;2024-03-07T08:38:14;4.80;99.90
33476;DHT22;19814;48.224;11.422;2024-03-07T08:40:39;5.00;99.90
33476;DHT22;19814;48.224;11.422;2024-03-07T08:43:05;5.10;99.90
33476;DHT22;19814;48.224;11.422;2024-03-07T08:45:32;5.00;99.90
33476;DHT22;19814;48.224;11.422;2024-03-07T08:48:00;5.10;99.90
33476;DHT22;19814;48.224;11.422;2024-03-07T08:50:26;5.20;99.90
33476;DHT22;19814;48.224;11.422;2024-03-07T08:52:53;5.40;99.90
33476;DHT22;19814;48.224;11.422;2024-03-07T08:55:25;5.50;99.90
33476;DHT22;19814;48.224;11.422;2024-03-07T08:57:51;5.50;99.90
33476;DHT22;19814;48.224;11.422;2024-03-07T09:00:17;5.50;99.90
33476;DHT22;19814;48.224;11.422;2024-03-07T09:02:49;5.50;99.90
33476;DHT22;19814;48.224;11.422;2024-03-07T09:05:18;5.70;99.90
33476;DHT22;19814;48.224;11.422;2024-03-07T09:07:44;5.90;99.90
33476;DHT22;19814;48.224;11.422;2024-03-07T09:10:11;5.80;99.90
33476;DHT22;19814;48.224;11.422;2024-03-07T09:12:37;5.80;99.90
33476;DHT22;19814;48.224;11.422;2024-03-07T09:15:06;5.70;99.90
33476;DHT22;19814;48.224;11.422;2024-03-07T09:17:31;5.70;99.90
33476;DHT22;19814;48.224;11.422;2024-03-07T09:19:57;5.60;99.90
33476;DHT22;19814;48.224;11.422;2024-03-07T09:22:22;5.70;99.90
33476;DHT22;19814;48.224;11.422;2024-03-07T09:24:48;5.80;99.90
33476;DHT22;19814;48.224;11.422;2024-03-07T09:27:13;5.90;99.90
33476;DHT22;19814;48.224;11.422;2024-03-07T09:29:40;6.10;99.90
33476;DHT22;19814;48.224;11.422;2024-03-07T09:32:06;6.30;99.90
33476;DHT22;19814;48.224;11.422;2024-03-07T09:34:34;6.40;99.90
33476;DHT22;19814;48.224;11.422;2024-03-07T09:37:01;6.30;99.90
33476;DHT22;19814;48.224;11.422;2024-03-07T09:39:26;6.40;99.90
33476;DHT22;19814;48.224;11.422;2024-03-07T09:41:52;6.30;99.90
33476;DHT22;19814;48.224;11.422;2024-03-07T09:44:20;6.40;99.90
33476;DHT22;19814;48.224;11.422;2024-03-07T09:46:52;6.70;99.90
33476;DHT22;19814;48.224;11.422;2024-03-07T09:49:18;6.90;99.90
33476;DHT22;19814;48.224;11.422;2024-03-07T09:51:44;7.10;99.90
33476;DHT22;19814;48.224;11.422;2024-03-07T09:54:10;7.20;99.90
33476;DHT22;19814;48.224;11.422;2024-03-07T09:56:37;7.30;99.90
33476;DHT22;19814;48.224;11.422;2024-03-07T09:59:04;7.40;99.90
33476;DHT22;19814;48.224;11.422;2024-03-07T10:01:33;7.70;99.90
33476;DHT22;19814;48.224;11.422;2024-03-07T10:04:02;7.90;99.90
33476;DHT22;19814;48.224;11.422;2024-03-07T10:06:40;8.00;99.90
33476;DHT22;19814;48.224;11.422;2024-03-07T10:09:05;8.20;99.90
33476;DHT22;19814;48.224;11.422;2024-03-07T10:11:32;8.50;99.90
33476;DHT22;19814;48.224;11.422;2024-03-07T10:13:58;8.70;99.90
33476;DHT22;19814;48.224;11.422;2024-03-07T10:16:24;8.90;99.90
33476;DHT22;19814;48.224;11.422;2024-03-07T10:18:49;9.00;99.90
33476;DHT22;19814;48.224;11.422;2024-03-07T10:21:19;9.30;99.00
33476;DHT22;19814;48.224;11.422;2024-03-07T10:23:44;9.40;99.90
33476;DHT22;19814;48.224;11.422;2024-03-07T10:26:10;10.20;99.90
33476;DHT22;19814;48.224;11.422;2024-03-07T10:28:35;10.60;98.10
33476;DHT22;19814;48.224;11.422;2024-03-07T10:31:03;10.80;97.00
33476;DHT22;19814;48.224;11.422;2024-03-07T10:33:29;11.30;99.10
33476;DHT22;19814;48.224;11.422;2024-03-07T10:35:59;11.90;96.80
33476;DHT22;19814;48.224;11.422;2024-03-07T10:38:25;12.20;96.10
33476;DHT22;19814;48.224;11.422;2024-03-07T10:40:54;12.60;94.80
33476;DHT22;19814;48.224;11.422;2024-03-07T10:43:20;13.10;93.50
33476;DHT22;19814;48.224;11.422;2024-03-07T10:45:47;13.90;93.70
33476;DHT22;19814;48.224;11.422;2024-03-07T10:48:13;13.80;91.10
33476;DHT22;19814;48.224;11.422;2024-03-07T10:50:41;13.00;93.00
33476;DHT22;19814;48.224;11.422;2024-03-07T10:58:12;11.10;93.70
33476;DHT22;19814;48.224;11.422;2024-03-07T11:00:40;10.40;94.00
33476;DHT22;19814;48.224;11.422;2024-03-07T11:03:11;9.90;96.00
33476;DHT22;19814;48.224;11.422;2024-03-07T11:05:36;9.90;96.00
33476;DHT22;19814;48.224;11.422;2024-03-07T11:08:03;9.70;97.30
33476;DHT22;19814;48.224;11.422;2024-03-07T11:10:32;9.60;96.10
33476;DHT22;19814;48.224;11.422;2024-03-07T11:12:59;9.10;96.50
33476;DHT22;19814;48.224;11.422;2024-03-07T11:15:25;9.10;97.50
33476;DHT22;19814;48.224;11.422;2024-03-07T11:17:53;9.00;98.40
33476;DHT22;19814;48.224;11.422;2024-03-07T11:20:23;9.00;96.90
33476;DHT22;19814;48.224;11.422;2024-03-07T11:22:49;9.10;97.90
33476;DHT22;19814;48.224;11.422;2024-03-07T11:25:18;9.20;96.50
33476;DHT22;19814;48.224;11.422;2024-03-07T11:27:51;9.20;97.50
33476;DHT22;19814;48.224;11.422;2024-03-07T11:30:16;9.10;97.10
33476;DHT22;19814;48.224;11.422;2024-03-07T11:32:43;8.90;96.40
33476;DHT22;19814;48.224;11.422;2024-03-07T11:35:13;8.70;97.30
33476;DHT22;19814;48.224;11.422;2024-03-07T11:37:42;8.70;97.30
33476;DHT22;19814;48.224;11.422;2024-03-07T11:42:49;8.50;96.80
33476;DHT22;19814;48.224;11.422;2024-03-07T11:45:14;8.50;97.70
33476;DHT22;19814;48.224;11.422;2024-03-07T11:47:58;8.60;98.30
33476;DHT22;19814;48.224;11.422;2024-03-07T11:50:40;8.90;98.70
33476;DHT22;19814;48.224;11.422;2024-03-07T11:53:07;9.20;98.20
33476;DHT22;19814;48.224;11.422;2024-03-07T11:55:33;9.20;96.60
33476;DHT22;19814;48.224;11.422;2024-03-07T11:58:24;9.10;96.30
33476;DHT22;19814;48.224;11.422;2024-03-07T12:00:51;9.10;96.20
33476;DHT22;19814;48.224;11.422;2024-03-07T12:03:17;9.00;96.40
33476;DHT22;19814;48.224;11.422;2024-03-07T12:05:44;9.10;97.20
33476;DHT22;19814;48.224;11.422;2024-03-07T12:08:10;9.40;97.00
33476;DHT22;19814;48.224;11.422;2024-03-07T12:10:36;9.60;95.90
33476;DHT22;19814;48.224;11.422;2024-03-07T12:13:03;9.60;96.50
33476;DHT22;19814;48.224;11.422;2024-03-07T12:15:29;9.40;95.20
33476;DHT22;19814;48.224;11.422;2024-03-07T12:17:56;9.00;96.40
33476;DHT22;19814;48.224;11.422;2024-03-07T12:20:23;9.10;96.50
33476;DHT22;19814;48.224;11.422;2024-03-07T12:23:02;9.00;95.80
33476;DHT22;19814;48.224;11.422;2024-03-07T12:25:28;8.90;96.40
33476;DHT22;19814;48.224;11.422;2024-03-07T12:28:01;8.80;96.60
33476;DHT22;19814;48.224;11.422;2024-03-07T12:30:32;8.80;97.20
33476;DHT22;19814;48.224;11.422;2024-03-07T12:32:58;8.70;96.90
33476;DHT22;19814;48.224;11.422;2024-03-07T12:35:24;8.70;97.10
33476;DHT22;19814;48.224;11.422;2024-03-07T12:37:49;8.90;96.20
33476;DHT22;19814;48.224;11.422;2024-03-07T12:40:15;8.90;96.10
33476;DHT22;19814;48.224;11.422;2024-03-07T12:42:47;8.80;96.40
33476;DHT22;19814;48.224;11.422;2024-03-07T12:45:13;9.00;97.30
33476;DHT22;19814;48.224;11.422;2024-03-07T12:47:46;9.20;96.50
33476;DHT22;19814;48.224;11.422;2024-03-07T12:50:12;9.40;96.40
33476;DHT22;19814;48.224;11.422;2024-03-07T12:52:38;9.80;97.70
33476;DHT22;19814;48.224;11.422;2024-03-07T12:55:05;10.00;97.20
33476;DHT22;19814;48.224;11.422;2024-03-07T12:57:32;10.10;95.40
33476;DHT22;19814;48.224;11.422;2024-03-07T12:59:57;10.00;95.20
33476;DHT22;19814;48.224;11.422;2024-03-07T13:02:22;9.70;95.10
33476;DHT22;19814;48.224;11.422;2024-03-07T13:04:55;9.30;95.10
33476;DHT22;19814;48.224;11.422;2024-03-07T13:07:20;9.10;95.80
33476;DHT22;19814;48.224;11.422;2024-03-07T13:09:46;9.10;96.70
33476;DHT22;19814;48.224;11.422;2024-03-07T13:12:13;9.20;95.40
33476;DHT22;19814;48.224;11.422;2024-03-07T13:14:40;9.10;94.50
33476;DHT22;19814;48.224;11.422;2024-03-07T13:17:05;9.10;95.60
33476;DHT22;19814;48.224;11.422;2024-03-07T13:19:34;9.00;94.90
33476;DHT22;19814;48.224;11.422;2024-03-07T13:21:59;8.70;94.90
33476;DHT22;19814;48.224;11.422;2024-03-07T13:24:25;8.60;95.00
33476;DHT22;19814;48.224;11.422;2024-03-07T13:26:52;8.60;96.10
33476;DHT22;19814;48.224;11.422;2024-03-07T13:29:19;8.60;95.80
33476;DHT22;19814;48.224;11.422;2024-03-07T13:31:50;8.90;95.80
33476;DHT22;19814;48.224;11.422;2024-03-07T13:34:16;8.90;94.80
33476;DHT22;19814;48.224;11.422;2024-03-07T13:36:41;9.00;95.40
33476;DHT22;19814;48.224;11.422;2024-03-07T13:39:08;9.00;94.90
33476;DHT22;19814;48.224;11.422;2024-03-07T13:41:40;8.90;94.80
33476;DHT22;19814;48.224;11.422;2024-03-07T13:44:05;8.80;95.40
33476;DHT22;19814;48.224;11.422;2024-03-07T13:46:31;8.70;95.10
33476;DHT22;19814;48.224;11.422;2024-03-07T13:48:59;8.60;95.50
33476;DHT22;19814;48.224;11.422;2024-03-07T13:51:33;8.60;96.30
33476;DHT22;19814;48.224;11.422;2024-03-07T13:54:01;8.70;96.10
33476;DHT22;19814;48.224;11.422;2024-03-07T13:56:50;8.90;96.10
33476;DHT22;19814;48.224;11.422;2024-03-07T13:59:21;8.90;95.10
33476;DHT22;19814;48.224;11.422;2024-03-07T14:01:55;8.80;95.40
33476;DHT22;19814;48.224;11.422;2024-03-07T14:07:18;9.00;95.80
33476;DHT22;19814;48.224;11.422;2024-03-07T14:23:29;8.70;95.80
33476;DHT22;19814;48.224;11.422;2024-03-07T14:29:02;8.50;96.60
33476;DHT22;19814;48.224;11.422;2024-03-07T14:31:31;8.50;96.30
33476;DHT22;19814;48.224;11.422;2024-03-07T14:36:32;8.40;96.40
33476;DHT22;19814;48.224;11.422;2024-03-07T14:39:01;8.40;96.90
33476;DHT22;19814;48.224;11.422;2024-03-07T14:42:11;8.40;96.60
33476;DHT22;19814;48.224;11.422;2024-03-07T14:44:13;8.40;96.70
33476;DHT22;19814;48.224;11.422;2024-03-07T14:46:39;8.20;97.60
33476;DHT22;19814;48.224;11.422;2024-03-07T14:49:06;8.10;97.90
33476;DHT22;19814;48.224;11.422;2024-03-07T14:51:33;8.10;98.70
33476;DHT22;19814;48.224;11.422;2024-03-07T14:54:01;8.00;98.30
33476;DHT22;19814;48.224;11.422;2024-03-07T14:56:28;7.90;99.10
33476;DHT22;19814;48.224;11.422;2024-03-07T14:58:53;8.00;98.80
33476;DHT22;19814;48.224;11.422;2024-03-07T15:01:19;8.00;98.50
33476;DHT22;19814;48.224;11.422;2024-03-07T15:03:44;7.80;99.30
33476;DHT22;19814;48.224;11.422;2024-03-07T15:06:10;7.80;98.90
33476;DHT22;19814;48.224;11.422;2024-03-07T15:08:40;7.70;99.40
33476;DHT22;19814;48.224;11.422;2024-03-07T15:11:07;7.60;99.50
33476;DHT22;19814;48.224;11.422;2024-03-07T15:13:39;7.50;99.60
33476;DHT22;19814;48.224;11.422;2024-03-07T15:16:04;7.60;99.90
33476;DHT22;19814;48.224;11.422;2024-03-07T15:18:31;7.60;99.30
33476;DHT22;19814;48.224;11.422;2024-03-07T15:20:57;7.60;99.40
33476;DHT22;19814;48.224;11.422;2024-03-07T15:23:22;7.60;99.40
33476;DHT22;19814;48.224;11.422;2024-03-07T15:25:47;7.60;99.50
33476;DHT22;19814;48.224;11.422;2024-03-07T15:28:13;7.50;99.10
33476;DHT22;19814;48.224;11.422;2024-03-07T15:30:38;7.60;99.60
33476;DHT22;19814;48.224;11.422;2024-03-07T15:33:04;7.60;99.10
33476;DHT22;19814;48.224;11.422;2024-03-07T15:35:30;7.60;99.10
33476;DHT22;19814;48.224;11.422;2024-03-07T15:37:56;7.60;99.70
33476;DHT22;19814;48.224;11.422;2024-03-07T15:40:22;7.60;99.90
33476;DHT22;19814;48.224;11.422;2024-03-07T15:42:48;7.60;99.70
33476;DHT22;19814;48.224;11.422;2024-03-07T15:45:19;7.60;99.50
33476;DHT22;19814;48.224;11.422;2024-03-07T15:47:45;7.70;99.80
33476;DHT22;19814;48.224;11.422;2024-03-07T15:50:11;7.70;99.50
33476;DHT22;19814;48.224;11.422;2024-03-07T15:52:41;7.60;99.10
33476;DHT22;19814;48.224;11.422;2024-03-07T15:55:09;7.50;98.30
33476;DHT22;19814;48.224;11.422;2024-03-07T16:00:08;7.30;99.00